createdAt,value
2023-05-25T00:00:53.760Z,94929.00
2023-05-25T00:01:43.750Z,94929.00
2023-05-25T00:02:42.881Z,94931.00
2023-05-25T00:03:42.746Z,94936.00
2023-05-25T00:04:42.810Z,94936.00
2023-05-25T00:05:42.753Z,94936.00
2023-05-25T00:06:42.680Z,94936.00
2023-05-25T00:07:42.656Z,94933.00
2023-05-25T00:08:42.632Z,94933.00
2023-05-25T00:09:42.645Z,94934.00
2023-05-25T00:10:42.646Z,94933.00
2023-05-25T00:11:42.650Z,94936.00
2023-05-25T00:12:42.609Z,94934.00
2023-05-25T00:13:42.616Z,94929.00
2023-05-25T00:14:42.615Z,94927.00
2023-05-25T00:15:42.748Z,94927.00
2023-05-25T00:16:42.605Z,94927.00
2023-05-25T00:17:42.601Z,94921.00
2023-05-25T00:18:42.580Z,94923.00
2023-05-25T00:19:42.636Z,94923.00
2023-05-25T00:20:42.728Z,94925.00
2023-05-25T00:21:42.672Z,94927.00
2023-05-25T00:22:42.687Z,94925.00
2023-05-25T00:23:42.718Z,94923.00
2023-05-25T00:24:42.759Z,94925.00
2023-05-25T00:25:43.131Z,94927.00
2023-05-25T00:26:42.751Z,94923.00
2023-05-25T00:27:42.773Z,94925.00
2023-05-25T00:28:42.816Z,94929.00
2023-05-25T00:29:42.874Z,94933.00
2023-05-25T00:30:42.908Z,94931.00
2023-05-25T00:31:42.936Z,94933.00
2023-05-25T00:32:43.017Z,94933.00
2023-05-25T00:33:43.072Z,94931.00
2023-05-25T00:34:43.051Z,94931.00
2023-05-25T00:35:43.166Z,94931.00
2023-05-25T00:36:43.110Z,94934.00
2023-05-25T00:37:43.134Z,94931.00
2023-05-25T00:38:43.157Z,94934.00
2023-05-25T00:39:43.194Z,94933.00
2023-05-25T00:40:43.261Z,94934.00
2023-05-25T00:41:43.305Z,94936.00
2023-05-25T00:42:43.324Z,94934.00
2023-05-25T00:43:43.415Z,94933.00
2023-05-25T00:44:43.498Z,94934.00
2023-05-25T00:45:43.650Z,94933.00
2023-05-25T00:46:43.607Z,94933.00
2023-05-25T00:47:43.592Z,94936.00
2023-05-25T00:48:43.662Z,94934.00
2023-05-25T00:49:43.703Z,94933.00
2023-05-25T00:50:43.730Z,94933.00
2023-05-25T00:51:43.826Z,94933.00
2023-05-25T00:52:43.858Z,94934.00
2023-05-25T00:53:43.946Z,94934.00
2023-05-25T00:54:43.938Z,94936.00
2023-05-25T00:55:44.064Z,94934.00
2023-05-25T00:56:44.020Z,94934.00
2023-05-25T00:57:44.016Z,94933.00
2023-05-25T00:58:44.074Z,94933.00
2023-05-25T00:59:44.131Z,94931.00
2023-05-25T01:00:44.146Z,94933.00
2023-05-25T01:01:44.154Z,94934.00
2023-05-25T01:02:44.246Z,94931.00
2023-05-25T01:03:44.278Z,94933.00
2023-05-25T01:04:44.214Z,94933.00
2023-05-25T01:05:44.368Z,94936.00
2023-05-25T01:06:44.224Z,94933.00
2023-05-25T01:07:44.247Z,94929.00
2023-05-25T01:08:44.267Z,94934.00
2023-05-25T01:09:44.262Z,94931.00
2023-05-25T01:10:44.273Z,94934.00
2023-05-25T01:11:44.389Z,94931.00
2023-05-25T01:12:44.451Z,94931.00
2023-05-25T01:13:44.449Z,94931.00
2023-05-25T01:14:44.482Z,94933.00
2023-05-25T01:15:44.718Z,94934.00
2023-05-25T01:16:44.577Z,94936.00
2023-05-25T01:17:44.600Z,94934.00
2023-05-25T01:18:44.622Z,94936.00
2023-05-25T01:19:47.526Z,94933.00
2023-05-25T01:20:45.717Z,94934.00
2023-05-25T01:21:44.646Z,94936.00
2023-05-25T01:22:44.630Z,94936.00
2023-05-25T01:23:44.589Z,94936.00
2023-05-25T01:24:44.638Z,94938.00
2023-05-25T01:25:44.715Z,94944.00
2023-05-25T01:26:44.620Z,94944.00
2023-05-25T01:27:44.588Z,94944.00
2023-05-25T01:28:44.594Z,94942.00
2023-05-25T01:29:44.586Z,94946.00
2023-05-25T01:30:44.567Z,94940.00
2023-05-25T01:31:44.643Z,94946.00
2023-05-25T01:32:44.666Z,94946.00
2023-05-25T01:33:44.631Z,94944.00
2023-05-25T01:34:44.615Z,94944.00
2023-05-25T01:35:44.851Z,94942.00
2023-05-25T01:36:44.674Z,94940.00
2023-05-25T01:37:44.650Z,94942.00
2023-05-25T01:38:44.701Z,94938.00
2023-05-25T01:39:44.688Z,94938.00
2023-05-25T01:40:44.748Z,94936.00
2023-05-25T01:41:44.809Z,94936.00
2023-05-25T01:42:44.817Z,94936.00
2023-05-25T01:43:44.851Z,94934.00
2023-05-25T01:44:44.944Z,94934.00
2023-05-25T01:45:45.158Z,94936.00
2023-05-25T01:46:44.981Z,94936.00
2023-05-25T01:47:45.098Z,94938.00
2023-05-25T01:48:45.020Z,94940.00
2023-05-25T01:49:45.075Z,94938.00
2023-05-25T01:50:45.119Z,94940.00
2023-05-25T01:51:45.200Z,94940.00
2023-05-25T01:52:45.131Z,94944.00
2023-05-25T01:53:45.154Z,94946.00
2023-05-25T01:54:45.164Z,94948.00
2023-05-25T01:55:45.416Z,94946.00
2023-05-25T01:56:45.267Z,94944.00
2023-05-25T01:57:45.310Z,94946.00
2023-05-25T01:58:45.364Z,94946.00
2023-05-25T01:59:45.365Z,94944.00
2023-05-25T02:00:45.394Z,94944.00
2023-05-25T02:01:45.430Z,94948.00
2023-05-25T02:02:45.398Z,94946.00
2023-05-25T02:03:45.431Z,94950.00
2023-05-25T02:04:45.478Z,94948.00
2023-05-25T02:05:45.677Z,94950.00
2023-05-25T02:06:45.533Z,94952.00
2023-05-25T02:07:45.545Z,94952.00
2023-05-25T02:08:45.546Z,94956.00
2023-05-25T02:09:45.554Z,94954.00
2023-05-25T02:10:45.578Z,94954.00
2023-05-25T02:11:45.620Z,94954.00
2023-05-25T02:12:45.703Z,94954.00
2023-05-25T02:13:45.709Z,94952.00
2023-05-25T02:14:45.727Z,94954.00
2023-05-25T02:15:45.973Z,94952.00
2023-05-25T02:16:45.774Z,94950.00
2023-05-25T02:17:45.794Z,94950.00
2023-05-25T02:18:45.876Z,94950.00
2023-05-25T02:19:45.920Z,94950.00
2023-05-25T02:20:45.941Z,94950.00
2023-05-25T02:21:45.954Z,94948.00
2023-05-25T02:22:46.006Z,94952.00
2023-05-25T02:23:46.033Z,94952.00
2023-05-25T02:24:46.071Z,94954.00
2023-05-25T02:25:46.980Z,94956.00
2023-05-25T02:26:46.117Z,94958.00
2023-05-25T02:27:46.112Z,94960.00
2023-05-25T02:28:46.124Z,94960.00
2023-05-25T02:29:46.199Z,94958.00
2023-05-25T02:30:46.250Z,94962.00
2023-05-25T02:31:46.359Z,94962.00
2023-05-25T02:32:46.300Z,94960.00
2023-05-25T02:33:46.296Z,94962.00
2023-05-25T02:34:46.338Z,94962.00
2023-05-25T02:35:46.541Z,94966.00
2023-05-25T02:36:46.356Z,94966.00
2023-05-25T02:37:47.317Z,94968.00
2023-05-25T02:38:46.450Z,94964.00
2023-05-25T02:39:46.512Z,94968.00
2023-05-25T02:40:46.522Z,94966.00
2023-05-25T02:41:46.563Z,94966.00
2023-05-25T02:42:46.574Z,94966.00
2023-05-25T02:43:46.613Z,94962.00
2023-05-25T02:44:46.611Z,94964.00
2023-05-25T02:45:46.616Z,94966.00
2023-05-25T02:46:46.700Z,94966.00
2023-05-25T02:47:46.750Z,94966.00
2023-05-25T02:48:46.702Z,94970.00
2023-05-25T02:49:46.770Z,94966.00
2023-05-25T02:50:46.785Z,94964.00
2023-05-25T02:51:46.816Z,94966.00
2023-05-25T02:52:46.845Z,94970.00
2023-05-25T02:53:46.825Z,94970.00
2023-05-25T02:54:46.916Z,94972.00
2023-05-25T02:55:46.993Z,94972.00
2023-05-25T02:56:46.979Z,94972.00
2023-05-25T02:57:46.995Z,94978.00
2023-05-25T02:58:47.031Z,94976.00
2023-05-25T02:59:47.087Z,94970.00
2023-05-25T03:00:47.130Z,94974.00
2023-05-25T03:01:47.080Z,94972.00
2023-05-25T03:02:47.219Z,94972.00
2023-05-25T03:03:47.249Z,94974.00
2023-05-25T03:04:47.176Z,94976.00
2023-05-25T03:05:47.210Z,94978.00
2023-05-25T03:06:47.228Z,94978.00
2023-05-25T03:07:47.261Z,94980.00
2023-05-25T03:08:47.350Z,94978.00
2023-05-25T03:09:47.411Z,94982.00
2023-05-25T03:10:47.423Z,94976.00
2023-05-25T03:11:47.442Z,94974.00
2023-05-25T03:12:47.467Z,94980.00
2023-05-25T03:13:47.491Z,94982.00
2023-05-25T03:14:47.546Z,94982.00
2023-05-25T03:15:47.609Z,94982.00
2023-05-25T03:16:47.629Z,94980.00
2023-05-25T03:17:47.714Z,94982.00
2023-05-25T03:18:47.707Z,94980.00
2023-05-25T03:19:47.773Z,94978.00
2023-05-25T03:20:47.794Z,94978.00
2023-05-25T03:21:47.792Z,94980.00
2023-05-25T03:22:47.903Z,94980.00
2023-05-25T03:23:47.911Z,94984.00
2023-05-25T03:24:47.987Z,94987.00
2023-05-25T03:25:47.965Z,94989.00
2023-05-25T03:26:47.976Z,94987.00
2023-05-25T03:27:48.004Z,94989.00
2023-05-25T03:28:47.975Z,94987.00
2023-05-25T03:29:47.986Z,94987.00
2023-05-25T03:30:48.027Z,94989.00
2023-05-25T03:31:48.148Z,94991.00
2023-05-25T03:32:48.119Z,94995.00
2023-05-25T03:33:48.112Z,94997.00
2023-05-25T03:34:48.137Z,94999.00
2023-05-25T03:35:48.171Z,95001.00
2023-05-25T03:36:48.229Z,95003.00
2023-05-25T03:37:48.255Z,95003.00
2023-05-25T03:38:48.313Z,95001.00
2023-05-25T03:39:48.318Z,95003.00
2023-05-25T03:40:48.352Z,95005.00
2023-05-25T03:41:48.419Z,95005.00
2023-05-25T03:42:48.374Z,95005.00
2023-05-25T03:43:48.416Z,95003.00
2023-05-25T03:44:48.452Z,95009.00
2023-05-25T03:45:48.520Z,95005.00
2023-05-25T03:46:48.500Z,95005.00
2023-05-25T03:47:48.683Z,95001.00
2023-05-25T03:48:48.587Z,94999.00
2023-05-25T03:49:48.634Z,94999.00
2023-05-25T03:50:48.660Z,95001.00
2023-05-25T03:51:48.690Z,95001.00
2023-05-25T03:52:48.706Z,95003.00
2023-05-25T03:53:48.684Z,95001.00
2023-05-25T03:54:48.731Z,95003.00
2023-05-25T03:55:48.729Z,95001.00
2023-05-25T03:56:48.752Z,95003.00
2023-05-25T03:57:48.817Z,95005.00
2023-05-25T03:58:48.870Z,95011.00
2023-05-25T03:59:48.881Z,95007.00
2023-05-25T04:00:48.930Z,95007.00
2023-05-25T04:01:48.919Z,95011.00
2023-05-25T04:02:49.026Z,95007.00
2023-05-25T04:03:49.173Z,95007.00
2023-05-25T04:04:49.117Z,95007.00
2023-05-25T04:05:49.127Z,95011.00
2023-05-25T04:06:49.196Z,95011.00
2023-05-25T04:07:49.164Z,95013.00
2023-05-25T04:08:49.198Z,95013.00
2023-05-25T04:09:49.251Z,95017.00
2023-05-25T04:10:49.294Z,95017.00
2023-05-25T04:11:49.326Z,95021.00
2023-05-25T04:12:49.339Z,95021.00
2023-05-25T04:13:49.394Z,95017.00
2023-05-25T04:14:49.415Z,95017.00
2023-05-25T04:15:49.442Z,95021.00
2023-05-25T04:16:49.561Z,95021.00
2023-05-25T04:17:49.564Z,95023.00
2023-05-25T04:18:49.571Z,95025.00
2023-05-25T04:19:49.583Z,95027.00
2023-05-25T04:20:49.563Z,95023.00
2023-05-25T04:21:49.594Z,95025.00
2023-05-25T04:22:49.604Z,95027.00
2023-05-25T04:23:49.651Z,95029.00
2023-05-25T04:24:49.655Z,95031.00
2023-05-25T04:25:49.670Z,95033.00
2023-05-25T04:26:49.695Z,95031.00
2023-05-25T04:27:49.733Z,95035.00
2023-05-25T04:28:49.787Z,95033.00
2023-05-25T04:29:49.807Z,95033.00
2023-05-25T04:30:49.849Z,95036.00
2023-05-25T04:31:49.953Z,95036.00
2023-05-25T04:32:49.986Z,95042.00
2023-05-25T04:33:49.974Z,95042.00
2023-05-25T04:34:50.041Z,95038.00
2023-05-25T04:35:50.064Z,95036.00
2023-05-25T04:36:50.105Z,95036.00
2023-05-25T04:37:50.140Z,95036.00
2023-05-25T04:38:50.174Z,95038.00
2023-05-25T04:39:50.226Z,95042.00
2023-05-25T04:40:50.212Z,95042.00
2023-05-25T04:41:50.237Z,95046.00
2023-05-25T04:42:50.269Z,95044.00
2023-05-25T04:44:06.572Z,95046.00
2023-05-25T04:44:51.307Z,95050.00
2023-05-25T04:45:50.348Z,95050.00
2023-05-25T04:46:50.325Z,95050.00
2023-05-25T04:47:50.378Z,95046.00
2023-05-25T04:48:50.298Z,95050.00
2023-05-25T04:49:50.300Z,95046.00
2023-05-25T04:50:50.298Z,95048.00
2023-05-25T04:51:50.272Z,95046.00
2023-05-25T04:52:50.262Z,95048.00
2023-05-25T04:53:50.277Z,95052.00
2023-05-25T04:54:50.252Z,95054.00
2023-05-25T04:55:50.274Z,95052.00
2023-05-25T04:56:50.319Z,95052.00
2023-05-25T04:57:50.432Z,95052.00
2023-05-25T04:58:50.390Z,95052.00
2023-05-25T04:59:50.445Z,95052.00
2023-05-25T05:00:52.597Z,95052.00
2023-05-25T05:01:50.574Z,95052.00
2023-05-25T05:02:50.656Z,95056.00
2023-05-25T05:03:50.552Z,95056.00
2023-05-25T05:04:50.635Z,95058.00
2023-05-25T05:05:50.609Z,95060.00
2023-05-25T05:06:50.670Z,95060.00
2023-05-25T05:07:50.707Z,95060.00
2023-05-25T05:08:50.733Z,95058.00
2023-05-25T05:09:50.771Z,95062.00
2023-05-25T05:10:50.795Z,95066.00
2023-05-25T05:11:50.846Z,95066.00
2023-05-25T05:12:50.872Z,95064.00
2023-05-25T05:13:50.905Z,95068.00
2023-05-25T05:14:50.978Z,95068.00
2023-05-25T05:15:50.963Z,95062.00
2023-05-25T05:16:51.002Z,95066.00
2023-05-25T05:17:51.043Z,95068.00
2023-05-25T05:18:51.017Z,95068.00
2023-05-25T05:19:51.008Z,95074.00
2023-05-25T05:20:51.046Z,95076.00
2023-05-25T05:21:51.098Z,95072.00
2023-05-25T05:22:51.151Z,95076.00
2023-05-25T05:23:51.172Z,95076.00
2023-05-25T05:24:51.220Z,95072.00
2023-05-25T05:25:51.237Z,95080.00
2023-05-25T05:26:58.305Z,95080.00
2023-05-25T05:27:52.210Z,95082.00
2023-05-25T05:28:51.167Z,95082.00
2023-05-25T05:29:51.201Z,95083.00
2023-05-25T05:30:51.173Z,95085.00
2023-05-25T05:31:51.319Z,95085.00
2023-05-25T05:32:51.210Z,95089.00
2023-05-25T05:33:51.348Z,95085.00
2023-05-25T05:34:51.140Z,95087.00
2023-05-25T05:35:51.160Z,95089.00
2023-05-25T05:36:57.847Z,95091.00
2023-05-25T05:37:52.164Z,95091.00
2023-05-25T05:38:51.156Z,95093.00
2023-05-25T05:39:51.118Z,95091.00
2023-05-25T05:40:51.153Z,95093.00
2023-05-25T05:41:51.118Z,95095.00
2023-05-25T05:42:51.110Z,95097.00
2023-05-25T05:43:51.135Z,95097.00
2023-05-25T05:44:51.095Z,95099.00
2023-05-25T05:45:51.076Z,95095.00
2023-05-25T05:46:51.216Z,95097.00
2023-05-25T05:47:51.122Z,95101.00
2023-05-25T05:48:51.078Z,95103.00
2023-05-25T05:49:51.084Z,95107.00
2023-05-25T05:50:51.089Z,95109.00
2023-05-25T05:51:51.128Z,95109.00
2023-05-25T05:52:51.127Z,95107.00
2023-05-25T05:53:51.164Z,95111.00
2023-05-25T05:54:51.194Z,95111.00
2023-05-25T05:55:53.581Z,95111.00
2023-05-25T05:56:51.230Z,95113.00
2023-05-25T05:57:51.207Z,95115.00
2023-05-25T05:58:51.180Z,95115.00
2023-05-25T05:59:51.210Z,95117.00
2023-05-25T06:00:51.178Z,95121.00
2023-05-25T06:01:51.235Z,95119.00
2023-05-25T06:02:51.283Z,95117.00
2023-05-25T06:03:51.251Z,95115.00
2023-05-25T06:04:51.168Z,95115.00
2023-05-25T06:05:51.147Z,95115.00
2023-05-25T06:06:51.138Z,95111.00
2023-05-25T06:07:51.187Z,95109.00
2023-05-25T06:08:51.134Z,95113.00
2023-05-25T06:09:51.145Z,95111.00
2023-05-25T06:10:51.176Z,95113.00
2023-05-25T06:11:51.109Z,95113.00
2023-05-25T06:12:51.122Z,95113.00
2023-05-25T06:13:51.123Z,95109.00
2023-05-25T06:14:51.118Z,95105.00
2023-05-25T06:15:51.073Z,95107.00
2023-05-25T06:16:51.204Z,95111.00
2023-05-25T06:17:51.138Z,95113.00
2023-05-25T06:18:51.050Z,95109.00
2023-05-25T06:19:51.128Z,95109.00
2023-05-25T06:20:51.083Z,95109.00
2023-05-25T06:21:51.068Z,95105.00
2023-05-25T06:22:51.073Z,95107.00
2023-05-25T06:23:51.087Z,95103.00
2023-05-25T06:24:51.024Z,95107.00
2023-05-25T06:25:51.023Z,95107.00
2023-05-25T06:26:51.034Z,95107.00
2023-05-25T06:27:51.028Z,95103.00
2023-05-25T06:28:51.015Z,95103.00
2023-05-25T06:29:51.004Z,95101.00
2023-05-25T06:30:51.041Z,95107.00
2023-05-25T06:31:51.104Z,95107.00
2023-05-25T06:32:51.048Z,95107.00
2023-05-25T06:33:50.990Z,95109.00
2023-05-25T06:34:50.988Z,95107.00
2023-05-25T06:35:51.144Z,95103.00
2023-05-25T06:36:51.012Z,95105.00
2023-05-25T06:37:51.037Z,95107.00
2023-05-25T06:38:51.054Z,95109.00
2023-05-25T06:39:51.091Z,95107.00
2023-05-25T06:40:51.158Z,95111.00
2023-05-25T06:41:51.162Z,95117.00
2023-05-25T06:42:51.196Z,95115.00
2023-05-25T06:43:51.222Z,95113.00
2023-05-25T06:44:51.255Z,95117.00
2023-05-25T06:45:51.306Z,95115.00
2023-05-25T06:46:51.383Z,95117.00
2023-05-25T06:47:51.391Z,95113.00
2023-05-25T06:48:51.378Z,95119.00
2023-05-25T06:49:51.417Z,95121.00
2023-05-25T06:50:51.444Z,95121.00
2023-05-25T06:51:51.466Z,95121.00
2023-05-25T06:52:51.532Z,95119.00
2023-05-25T06:53:51.540Z,95123.00
2023-05-25T06:54:51.586Z,95123.00
2023-05-25T06:55:51.611Z,95121.00
2023-05-25T06:56:51.651Z,95117.00
2023-05-25T06:57:51.668Z,95119.00
2023-05-25T06:58:51.667Z,95117.00
2023-05-25T06:59:51.723Z,95117.00
2023-05-25T07:00:51.713Z,95121.00
2023-05-25T07:01:51.819Z,95123.00
2023-05-25T07:02:51.832Z,95125.00
2023-05-25T07:03:51.865Z,95119.00
2023-05-25T07:04:51.805Z,95123.00
2023-05-25T07:05:51.800Z,95121.00
2023-05-25T07:06:51.926Z,95127.00
2023-05-25T07:07:51.945Z,95125.00
2023-05-25T07:08:51.933Z,95129.00
2023-05-25T07:09:51.991Z,95125.00
2023-05-25T07:10:52.111Z,95127.00
2023-05-25T07:11:51.998Z,95129.00
2023-05-25T07:12:52.053Z,95130.00
2023-05-25T07:13:52.089Z,95130.00
2023-05-25T07:14:52.148Z,95129.00
2023-05-25T07:15:52.189Z,95129.00
2023-05-25T07:16:52.166Z,95125.00
2023-05-25T07:17:52.306Z,95125.00
2023-05-25T07:18:52.258Z,95129.00
2023-05-25T07:19:52.319Z,95127.00
2023-05-25T07:20:52.298Z,95123.00
2023-05-25T07:21:52.328Z,95127.00
2023-05-25T07:22:52.427Z,95125.00
2023-05-25T07:23:52.450Z,95127.00
2023-05-25T07:24:52.459Z,95125.00
2023-05-25T07:25:52.520Z,95119.00
2023-05-25T07:26:52.532Z,95127.00
2023-05-25T07:27:52.554Z,95125.00
2023-05-25T07:28:52.605Z,95121.00
2023-05-25T07:29:52.631Z,95127.00
2023-05-25T07:30:52.616Z,95125.00
2023-05-25T07:31:52.773Z,95123.00
2023-05-25T07:32:52.860Z,95123.00
2023-05-25T07:33:52.761Z,95125.00
2023-05-25T07:34:52.763Z,95123.00
2023-05-25T07:35:52.812Z,95123.00
2023-05-25T07:36:52.837Z,95125.00
2023-05-25T07:37:53.036Z,95123.00
2023-05-25T07:38:52.914Z,95125.00
2023-05-25T07:39:52.996Z,95121.00
2023-05-25T07:40:52.973Z,95121.00
2023-05-25T07:41:53.022Z,95125.00
2023-05-25T07:42:53.052Z,95129.00
2023-05-25T07:43:53.099Z,95125.00
2023-05-25T07:44:53.137Z,95129.00
2023-05-25T07:45:53.127Z,95127.00
2023-05-25T07:46:53.269Z,95130.00
2023-05-25T07:47:53.228Z,95134.00
2023-05-25T07:48:53.208Z,95134.00
2023-05-25T07:49:53.259Z,95132.00
2023-05-25T07:50:53.319Z,95129.00
2023-05-25T07:51:53.340Z,95130.00
2023-05-25T07:52:53.594Z,95127.00
2023-05-25T07:53:53.391Z,95127.00
2023-05-25T07:54:53.476Z,95127.00
2023-05-25T07:55:53.459Z,95125.00
2023-05-25T07:56:53.481Z,95123.00
2023-05-25T07:57:53.524Z,95129.00
2023-05-25T07:58:53.591Z,95136.00
2023-05-25T07:59:53.592Z,95132.00
2023-05-25T08:00:53.606Z,95127.00
2023-05-25T08:01:53.681Z,95129.00
2023-05-25T08:02:53.744Z,95132.00
2023-05-25T08:03:53.769Z,95125.00
2023-05-25T08:04:53.775Z,95130.00
2023-05-25T08:05:53.778Z,95130.00
2023-05-25T08:06:53.781Z,95129.00
2023-05-25T08:07:53.829Z,95132.00
2023-05-25T08:08:53.795Z,95130.00
2023-05-25T08:09:53.842Z,95127.00
2023-05-25T08:10:53.912Z,95127.00
2023-05-25T08:12:03.821Z,95129.00
2023-05-25T08:12:56.177Z,95123.00
2023-05-25T08:13:53.892Z,95123.00
2023-05-25T08:14:53.878Z,95125.00
2023-05-25T08:15:53.906Z,95125.00
2023-05-25T08:16:53.901Z,95129.00
2023-05-25T08:17:53.949Z,95130.00
2023-05-25T08:18:53.880Z,95129.00
2023-05-25T08:19:53.896Z,95127.00
2023-05-25T08:20:53.834Z,95129.00
2023-05-25T08:21:53.815Z,95129.00
2023-05-25T08:22:53.835Z,95129.00
2023-05-25T08:23:53.806Z,95130.00
2023-05-25T08:24:53.818Z,95134.00
2023-05-25T08:25:53.800Z,95130.00
2023-05-25T08:26:55.255Z,95129.00
2023-05-25T08:27:53.812Z,95125.00
2023-05-25T08:28:53.832Z,95123.00
2023-05-25T08:29:53.811Z,95129.00
2023-05-25T08:30:53.781Z,95130.00
2023-05-25T08:31:53.796Z,95129.00
2023-05-25T08:32:53.822Z,95130.00
2023-05-25T08:33:53.743Z,95129.00
2023-05-25T08:34:53.847Z,95130.00
2023-05-25T08:35:53.779Z,95132.00
2023-05-25T08:36:53.784Z,95125.00
2023-05-25T08:37:53.758Z,95127.00
2023-05-25T08:38:53.917Z,95129.00
2023-05-25T08:39:53.742Z,95129.00
2023-05-25T08:40:53.737Z,95127.00
2023-05-25T08:41:53.740Z,95129.00
2023-05-25T08:42:53.689Z,95130.00
2023-05-25T08:43:53.676Z,95125.00
2023-05-25T08:44:53.672Z,95121.00
2023-05-25T08:45:53.728Z,95123.00
2023-05-25T08:46:53.666Z,95121.00
2023-05-25T08:47:53.788Z,95121.00
2023-05-25T08:48:53.721Z,95115.00
2023-05-25T08:49:53.737Z,95115.00
2023-05-25T08:50:53.638Z,95113.00
2023-05-25T08:51:53.621Z,95115.00
2023-05-25T08:52:53.625Z,95115.00
2023-05-25T08:53:53.703Z,95115.00
2023-05-25T08:54:54.082Z,95111.00
2023-05-25T08:55:53.726Z,95107.00
2023-05-25T08:56:53.743Z,95111.00
2023-05-25T08:57:53.802Z,95103.00
2023-05-25T08:58:53.884Z,95109.00
2023-05-25T08:59:53.863Z,95105.00
2023-05-25T09:00:53.908Z,95105.00
2023-05-25T09:01:54.006Z,95109.00
2023-05-25T09:02:54.614Z,95103.00
2023-05-25T09:03:54.026Z,95097.00
2023-05-25T09:04:54.025Z,95095.00
2023-05-25T09:05:54.098Z,95097.00
2023-05-25T09:07:08.830Z,95093.00
2023-05-25T09:07:55.117Z,95099.00
2023-05-25T09:08:54.095Z,95107.00
2023-05-25T09:09:54.080Z,95101.00
2023-05-25T09:10:54.074Z,95103.00
2023-05-25T09:11:54.100Z,95103.00
2023-05-25T09:12:54.942Z,95103.00
2023-05-25T09:13:54.104Z,95103.00
2023-05-25T09:14:54.048Z,95105.00
2023-05-25T09:15:54.068Z,95103.00
2023-05-25T09:16:54.084Z,95101.00
2023-05-25T09:17:54.032Z,95103.00
2023-05-25T09:18:53.989Z,95105.00
2023-05-25T09:19:54.137Z,95099.00
2023-05-25T09:20:54.220Z,95101.00
2023-05-25T09:22:03.070Z,95101.00
2023-05-25T09:22:55.028Z,95099.00
2023-05-25T09:23:54.005Z,95099.00
2023-05-25T09:24:54.008Z,95097.00
2023-05-25T09:25:54.034Z,95099.00
2023-05-25T09:26:53.995Z,95099.00
2023-05-25T09:27:53.998Z,95099.00
2023-05-25T09:28:54.011Z,95097.00
2023-05-25T09:29:53.990Z,95099.00
2023-05-25T09:30:53.934Z,95099.00
2023-05-25T09:31:54.120Z,95097.00
2023-05-25T09:32:54.007Z,95099.00
2023-05-25T09:33:54.118Z,95097.00
2023-05-25T09:34:54.030Z,95099.00
2023-05-25T09:35:54.018Z,95099.00
2023-05-25T09:36:54.212Z,95097.00
2023-05-25T09:37:54.295Z,95101.00
2023-05-25T09:38:54.456Z,95101.00
2023-05-25T09:39:54.159Z,95101.00
2023-05-25T09:40:54.179Z,95097.00
2023-05-25T09:41:54.180Z,95097.00
2023-05-25T09:42:54.230Z,95099.00
2023-05-25T09:44:01.957Z,95095.00
2023-05-25T09:44:55.274Z,95091.00
2023-05-25T09:45:54.305Z,95095.00
2023-05-25T09:46:54.288Z,95093.00
2023-05-25T09:47:54.288Z,95095.00
2023-05-25T09:48:54.225Z,95093.00
2023-05-25T09:49:54.237Z,95095.00
2023-05-25T09:50:54.206Z,95089.00
2023-05-25T09:51:54.245Z,95091.00
2023-05-25T09:52:54.210Z,95093.00
2023-05-25T09:53:54.187Z,95093.00
2023-05-25T09:54:54.201Z,95089.00
2023-05-25T09:55:54.664Z,95085.00
2023-05-25T09:56:54.261Z,95087.00
2023-05-25T09:57:54.152Z,95087.00
2023-05-25T09:58:54.228Z,95085.00
2023-05-25T09:59:54.264Z,95085.00
2023-05-25T10:00:54.293Z,95078.00
2023-05-25T10:01:54.505Z,95080.00
2023-05-25T10:02:54.505Z,95074.00
2023-05-25T10:04:03.497Z,95074.00
2023-05-25T10:04:55.471Z,95074.00
2023-05-25T10:05:54.439Z,95072.00
2023-05-25T10:06:54.387Z,95074.00
2023-05-25T10:07:54.417Z,95074.00
2023-05-25T10:08:54.414Z,95070.00
2023-05-25T10:09:54.419Z,95072.00
2023-05-25T10:10:54.407Z,95066.00
2023-05-25T10:11:54.366Z,95066.00
2023-05-25T10:12:54.387Z,95064.00
2023-05-25T10:13:54.380Z,95064.00
2023-05-25T10:14:54.382Z,95062.00
2023-05-25T10:15:54.593Z,95066.00
2023-05-25T10:16:54.362Z,95064.00
2023-05-25T10:17:54.479Z,95064.00
2023-05-25T10:18:54.464Z,95066.00
2023-05-25T10:19:54.508Z,95066.00
2023-05-25T10:20:54.649Z,95066.00
2023-05-25T10:21:54.549Z,95064.00
2023-05-25T10:22:54.599Z,95064.00
2023-05-25T10:23:54.607Z,95066.00
2023-05-25T10:24:54.628Z,95066.00
2023-05-25T10:25:54.727Z,95060.00
2023-05-25T10:26:54.721Z,95058.00
2023-05-25T10:27:56.120Z,95060.00
2023-05-25T10:28:54.893Z,95058.00
2023-05-25T10:29:54.894Z,95056.00
2023-05-25T10:30:54.948Z,95056.00
2023-05-25T10:31:54.963Z,95056.00
2023-05-25T10:32:54.987Z,95054.00
2023-05-25T10:33:55.028Z,95050.00
2023-05-25T10:34:55.025Z,95050.00
2023-05-25T10:36:02.978Z,95056.00
2023-05-25T10:36:56.080Z,95048.00
2023-05-25T10:37:55.056Z,95052.00
2023-05-25T10:38:55.058Z,95050.00
2023-05-25T10:39:55.021Z,95050.00
2023-05-25T10:40:55.023Z,95050.00
2023-05-25T10:41:54.999Z,95046.00
2023-05-25T10:42:55.027Z,95050.00
2023-05-25T10:43:55.029Z,95050.00
2023-05-25T10:44:54.996Z,95050.00
2023-05-25T10:45:55.612Z,95048.00
2023-05-25T10:46:55.008Z,95044.00
2023-05-25T10:47:55.065Z,95044.00
2023-05-25T10:48:54.965Z,95044.00
2023-05-25T10:49:55.020Z,95046.00
2023-05-25T10:50:55.036Z,95046.00
2023-05-25T10:51:55.070Z,95038.00
2023-05-25T10:52:55.092Z,95042.00
2023-05-25T10:53:55.161Z,95038.00
2023-05-25T10:54:55.166Z,95046.00
2023-05-25T10:55:55.203Z,95038.00
2023-05-25T10:56:55.210Z,95035.00
2023-05-25T10:57:55.266Z,95033.00
2023-05-25T10:58:55.291Z,95035.00
2023-05-25T10:59:55.321Z,95035.00
2023-05-25T11:00:55.387Z,95031.00
2023-05-25T11:01:55.383Z,95031.00
2023-05-25T11:02:55.550Z,95027.00
2023-05-25T11:03:55.510Z,95029.00
2023-05-25T11:04:55.479Z,95023.00
2023-05-25T11:05:55.541Z,95019.00
2023-05-25T11:06:55.573Z,95017.00
2023-05-25T11:07:55.615Z,95017.00
2023-05-25T11:08:55.645Z,95013.00
2023-05-25T11:09:56.158Z,95015.00
2023-05-25T11:10:55.704Z,95013.00
2023-05-25T11:11:55.758Z,95013.00
2023-05-25T11:12:55.734Z,95009.00
2023-05-25T11:13:55.745Z,95007.00
2023-05-25T11:14:55.815Z,95007.00
2023-05-25T11:15:55.815Z,95007.00
2023-05-25T11:16:55.889Z,95003.00
2023-05-25T11:17:55.870Z,95005.00
2023-05-25T11:18:55.867Z,95001.00
2023-05-25T11:19:55.986Z,95001.00
2023-05-25T11:20:55.982Z,95003.00
2023-05-25T11:21:56.041Z,95001.00
2023-05-25T11:22:56.167Z,94997.00
2023-05-25T11:23:56.134Z,94995.00
2023-05-25T11:24:56.091Z,94991.00
2023-05-25T11:25:56.116Z,94995.00
2023-05-25T11:26:56.119Z,94993.00
2023-05-25T11:27:56.206Z,94989.00
2023-05-25T11:28:56.202Z,94989.00
2023-05-25T11:29:56.265Z,94987.00
2023-05-25T11:30:56.280Z,94987.00
2023-05-25T11:31:56.294Z,94987.00
2023-05-25T11:32:56.405Z,94989.00
2023-05-25T11:33:56.381Z,94987.00
2023-05-25T11:34:56.387Z,94985.00
2023-05-25T11:35:56.454Z,94982.00
2023-05-25T11:36:56.451Z,94980.00
2023-05-25T11:37:56.464Z,94972.00
2023-05-25T11:39:04.896Z,94974.00
2023-05-25T11:39:57.503Z,94974.00
2023-05-25T11:40:56.484Z,94976.00
2023-05-25T11:41:56.515Z,94972.00
2023-05-25T11:42:56.511Z,94966.00
2023-05-25T11:43:56.499Z,94970.00
2023-05-25T11:44:56.458Z,94974.00